sensor_id;sensor_type;location;lat;lon;timestamp;pressure;altitude;pressure_sealevel;temperature;humidity
11108;BME280;5607;48.302;14.294;2024-01-30T00:01:27;59411.84;;;-143.53;100.00
11108;BME280;5607;48.302;14.294;2024-01-30T00:04:14;59411.84;;;-143.53;100.00
11108;BME280;5607;48.302;14.294;2024-01-30T00:07:01;59411.84;;;-143.53;100.00
11108;BME280;5607;48.302;14.294;2024-01-30T00:09:48;59411.84;;;-143.53;100.00
11108;BME280;5607;48.302;14.294;2024-01-30T00:12:34;59411.84;;;-143.53;100.00
11108;BME280;5607;48.302;14.294;2024-01-30T00:15:21;59411.84;;;-143.53;100.00
11108;BME280;5607;48.302;14.294;2024-01-30T00:18:07;59411.84;;;-143.53;100.00
11108;BME280;5607;48.302;14.294;2024-01-30T00:20:54;59411.84;;;-143.53;100.00
11108;BME280;5607;48.302;14.294;2024-01-30T00:23:40;59411.84;;;-143.53;100.00
11108;BME280;5607;48.302;14.294;2024-01-30T00:26:27;59411.84;;;-143.53;100.00
11108;BME280;5607;48.302;14.294;2024-01-30T00:29:13;59411.84;;;-143.53;100.00
11108;BME280;5607;48.302;14.294;2024-01-30T00:32:05;59411.84;;;-143.53;100.00
11108;BME280;5607;48.302;14.294;2024-01-30T00:34:52;59411.84;;;-143.53;100.00
11108;BME280;5607;48.302;14.294;2024-01-30T00:37:39;59411.84;;;-143.53;100.00
11108;BME280;5607;48.302;14.294;2024-01-30T00:40:26;59411.84;;;-143.53;100.00
11108;BME280;5607;48.302;14.294;2024-01-30T00:43:12;59411.84;;;-143.53;100.00
11108;BME280;5607;48.302;14.294;2024-01-30T00:45:59;59411.84;;;-143.53;100.00
11108;BME280;5607;48.302;14.294;2024-01-30T00:48:46;59411.84;;;-143.53;100.00
11108;BME280;5607;48.302;14.294;2024-01-30T00:51:32;59411.84;;;-143.53;100.00
11108;BME280;5607;48.302;14.294;2024-01-30T00:54:19;59411.84;;;-143.53;100.00
11108;BME280;5607;48.302;14.294;2024-01-30T00:57:05;59411.84;;;-143.53;100.00
11108;BME280;5607;48.302;14.294;2024-01-30T00:59:53;59411.84;;;-143.53;100.00
11108;BME280;5607;48.302;14.294;2024-01-30T01:02:40;59411.84;;;-143.53;100.00
11108;BME280;5607;48.302;14.294;2024-01-30T01:05:29;59411.84;;;-143.53;100.00
11108;BME280;5607;48.302;14.294;2024-01-30T01:08:17;59411.84;;;-143.53;100.00
11108;BME280;5607;48.302;14.294;2024-01-30T01:11:04;59411.84;;;-143.53;100.00
11108;BME280;5607;48.302;14.294;2024-01-30T01:13:50;59411.84;;;-143.53;100.00
11108;BME280;5607;48.302;14.294;2024-01-30T01:16:37;59411.84;;;-143.53;100.00
11108;BME280;5607;48.302;14.294;2024-01-30T01:19:24;59411.84;;;-143.53;100.00
11108;BME280;5607;48.302;14.294;2024-01-30T01:22:11;59411.84;;;-143.53;100.00
11108;BME280;5607;48.302;14.294;2024-01-30T01:24:58;59411.84;;;-143.53;100.00
11108;BME280;5607;48.302;14.294;2024-01-30T01:27:44;59411.84;;;-143.53;100.00
11108;BME280;5607;48.302;14.294;2024-01-30T01:30:37;59411.84;;;-143.53;100.00
11108;BME280;5607;48.302;14.294;2024-01-30T01:33:24;59411.84;;;-143.53;100.00
11108;BME280;5607;48.302;14.294;2024-01-30T01:36:11;59411.84;;;-143.53;100.00
11108;BME280;5607;48.302;14.294;2024-01-30T01:38:58;59411.84;;;-143.53;100.00
11108;BME280;5607;48.302;14.294;2024-01-30T01:41:44;59411.84;;;-143.53;100.00
11108;BME280;5607;48.302;14.294;2024-01-30T01:44:31;59411.84;;;-143.53;100.00
11108;BME280;5607;48.302;14.294;2024-01-30T01:47:18;59411.84;;;-143.53;100.00
11108;BME280;5607;48.302;14.294;2024-01-30T01:50:04;59411.84;;;-143.53;100.00
11108;BME280;5607;48.302;14.294;2024-01-30T01:52:51;59411.84;;;-143.53;100.00
11108;BME280;5607;48.302;14.294;2024-01-30T01:55:39;59411.84;;;-143.53;100.00
11108;BME280;5607;48.302;14.294;2024-01-30T01:58:28;59411.84;;;-143.53;100.00
11108;BME280;5607;48.302;14.294;2024-01-30T02:01:18;59411.84;;;-143.53;100.00
11108;BME280;5607;48.302;14.294;2024-01-30T02:04:25;59411.84;;;-143.53;100.00
11108;BME280;5607;48.302;14.294;2024-01-30T02:07:12;59411.84;;;-143.53;100.00
11108;BME280;5607;48.302;14.294;2024-01-30T02:09:59;59411.84;;;-143.53;100.00
11108;BME280;5607;48.302;14.294;2024-01-30T02:12:45;59411.84;;;-143.53;100.00
11108;BME280;5607;48.302;14.294;2024-01-30T02:15:32;59411.84;;;-143.53;100.00
11108;BME280;5607;48.302;14.294;2024-01-30T02:18:19;59411.84;;;-143.53;100.00
11108;BME280;5607;48.302;14.294;2024-01-30T02:21:08;59411.84;;;-143.53;100.00
11108;BME280;5607;48.302;14.294;2024-01-30T02:23:55;59411.84;;;-143.53;100.00
11108;BME280;5607;48.302;14.294;2024-01-30T02:26:42;59411.84;;;-143.53;100.00
11108;BME280;5607;48.302;14.294;2024-01-30T02:29:29;59411.84;;;-143.53;100.00
11108;BME280;5607;48.302;14.294;2024-01-30T02:32:15;59411.84;;;-143.53;100.00
11108;BME280;5607;48.302;14.294;2024-01-30T02:35:02;59411.84;;;-143.53;100.00
11108;BME280;5607;48.302;14.294;2024-01-30T02:37:48;59411.84;;;-143.53;100.00
11108;BME280;5607;48.302;14.294;2024-01-30T02:40:35;59411.84;;;-143.53;100.00
11108;BME280;5607;48.302;14.294;2024-01-30T02:43:22;59411.84;;;-143.53;100.00
11108;BME280;5607;48.302;14.294;2024-01-30T02:46:08;59411.84;;;-143.53;100.00
11108;BME280;5607;48.302;14.294;2024-01-30T02:48:55;59411.84;;;-143.53;100.00
11108;BME280;5607;48.302;14.294;2024-01-30T02:51:41;59411.84;;;-143.53;100.00
11108;BME280;5607;48.302;14.294;2024-01-30T02:54:28;59411.84;;;-143.53;100.00
11108;BME280;5607;48.302;14.294;2024-01-30T02:57:16;59411.84;;;-143.53;100.00
11108;BME280;5607;48.302;14.294;2024-01-30T03:00:04;59411.84;;;-143.53;100.00
11108;BME280;5607;48.302;14.294;2024-01-30T03:02:52;59411.84;;;-143.53;100.00
11108;BME280;5607;48.302;14.294;2024-01-30T03:05:38;59411.84;;;-143.53;100.00
11108;BME280;5607;48.302;14.294;2024-01-30T03:08:25;59411.84;;;-143.53;100.00
11108;BME280;5607;48.302;14.294;2024-01-30T03:11:11;59411.84;;;-143.53;100.00
11108;BME280;5607;48.302;14.294;2024-01-30T03:13:58;59411.84;;;-143.53;100.00
11108;BME280;5607;48.302;14.294;2024-01-30T03:16:46;59411.84;;;-143.53;100.00
11108;BME280;5607;48.302;14.294;2024-01-30T03:19:32;59411.84;;;-143.53;100.00
11108;BME280;5607;48.302;14.294;2024-01-30T03:22:20;59411.84;;;-143.53;100.00
11108;BME280;5607;48.302;14.294;2024-01-30T03:25:07;59411.84;;;-143.53;100.00
11108;BME280;5607;48.302;14.294;2024-01-30T03:27:54;59411.84;;;-143.53;100.00
11108;BME280;5607;48.302;14.294;2024-01-30T03:30:40;59411.84;;;-143.53;100.00
11108;BME280;5607;48.302;14.294;2024-01-30T03:33:28;59411.84;;;-143.53;100.00
11108;BME280;5607;48.302;14.294;2024-01-30T03:36:15;59411.84;;;-143.53;100.00
11108;BME280;5607;48.302;14.294;2024-01-30T03:39:02;59411.84;;;-143.53;100.00
11108;BME280;5607;48.302;14.294;2024-01-30T03:41:49;59411.84;;;-143.53;100.00
11108;BME280;5607;48.302;14.294;2024-01-30T03:44:35;59411.84;;;-143.53;100.00
11108;BME280;5607;48.302;14.294;2024-01-30T03:47:22;59411.84;;;-143.53;100.00
11108;BME280;5607;48.302;14.294;2024-01-30T03:50:09;59411.84;;;-143.53;100.00
11108;BME280;5607;48.302;14.294;2024-01-30T03:52:55;59411.84;;;-143.53;100.00
11108;BME280;5607;48.302;14.294;2024-01-30T03:55:42;59411.84;;;-143.53;100.00
11108;BME280;5607;48.302;14.294;2024-01-30T03:58:28;59411.84;;;-143.53;100.00
11108;BME280;5607;48.302;14.294;2024-01-30T04:01:15;59411.84;;;-143.53;100.00
11108;BME280;5607;48.302;14.294;2024-01-30T04:04:01;59411.84;;;-143.53;100.00
11108;BME280;5607;48.302;14.294;2024-01-30T04:06:48;59411.84;;;-143.53;100.00
11108;BME280;5607;48.302;14.294;2024-01-30T04:09:35;59411.84;;;-143.53;100.00
11108;BME280;5607;48.302;14.294;2024-01-30T04:12:21;59411.84;;;-143.53;100.00
11108;BME280;5607;48.302;14.294;2024-01-30T04:15:08;59411.84;;;-143.53;100.00
11108;BME280;5607;48.302;14.294;2024-01-30T04:17:57;59411.84;;;-143.53;100.00
11108;BME280;5607;48.302;14.294;2024-01-30T04:20:46;59411.84;;;-143.53;100.00
11108;BME280;5607;48.302;14.294;2024-01-30T04:23:32;59411.84;;;-143.53;100.00
11108;BME280;5607;48.302;14.294;2024-01-30T04:26:19;59411.84;;;-143.53;100.00
11108;BME280;5607;48.302;14.294;2024-01-30T04:29:06;59411.84;;;-143.53;100.00
11108;BME280;5607;48.302;14.294;2024-01-30T04:31:52;59411.84;;;-143.53;100.00
11108;BME280;5607;48.302;14.294;2024-01-30T04:34:39;59411.84;;;-143.53;100.00
11108;BME280;5607;48.302;14.294;2024-01-30T04:37:26;59411.84;;;-143.53;100.00
11108;BME280;5607;48.302;14.294;2024-01-30T04:40:12;59411.84;;;-143.53;100.00
11108;BME280;5607;48.302;14.294;2024-01-30T04:42:59;59411.84;;;-143.53;100.00
11108;BME280;5607;48.302;14.294;2024-01-30T04:45:45;59411.84;;;-143.53;100.00
11108;BME280;5607;48.302;14.294;2024-01-30T04:48:32;59411.84;;;-143.53;100.00
11108;BME280;5607;48.302;14.294;2024-01-30T04:51:18;59411.84;;;-143.53;100.00
11108;BME280;5607;48.302;14.294;2024-01-30T04:54:05;59411.84;;;-143.53;100.00
11108;BME280;5607;48.302;14.294;2024-01-30T04:56:52;59411.84;;;-143.53;100.00
11108;BME280;5607;48.302;14.294;2024-01-30T04:59:38;59411.84;;;-143.53;100.00
11108;BME280;5607;48.302;14.294;2024-01-30T05:02:25;59411.84;;;-143.53;100.00
11108;BME280;5607;48.302;14.294;2024-01-30T05:05:13;59411.84;;;-143.53;100.00
11108;BME280;5607;48.302;14.294;2024-01-30T05:08:00;59411.84;;;-143.53;100.00
11108;BME280;5607;48.302;14.294;2024-01-30T05:10:46;59411.84;;;-143.53;100.00
11108;BME280;5607;48.302;14.294;2024-01-30T05:13:33;59411.84;;;-143.53;100.00
11108;BME280;5607;48.302;14.294;2024-01-30T05:16:19;59411.84;;;-143.53;100.00
11108;BME280;5607;48.302;14.294;2024-01-30T05:19:06;59411.84;;;-143.53;100.00
11108;BME280;5607;48.302;14.294;2024-01-30T05:21:52;59411.84;;;-143.53;100.00
11108;BME280;5607;48.302;14.294;2024-01-30T05:24:39;59411.84;;;-143.53;100.00
11108;BME280;5607;48.302;14.294;2024-01-30T05:27:25;59411.84;;;-143.53;100.00
11108;BME280;5607;48.302;14.294;2024-01-30T05:30:12;59411.84;;;-143.53;100.00
11108;BME280;5607;48.302;14.294;2024-01-30T05:32:59;59411.84;;;-143.53;100.00
11108;BME280;5607;48.302;14.294;2024-01-30T05:35:45;59411.84;;;-143.53;100.00
11108;BME280;5607;48.302;14.294;2024-01-30T05:38:32;59411.84;;;-143.53;100.00
11108;BME280;5607;48.302;14.294;2024-01-30T05:41:19;59411.84;;;-143.53;100.00
11108;BME280;5607;48.302;14.294;2024-01-30T05:44:07;59411.84;;;-143.53;100.00
11108;BME280;5607;48.302;14.294;2024-01-30T05:46:54;59411.84;;;-143.53;100.00
11108;BME280;5607;48.302;14.294;2024-01-30T05:49:40;59411.84;;;-143.53;100.00
11108;BME280;5607;48.302;14.294;2024-01-30T05:52:27;59411.84;;;-143.53;100.00
11108;BME280;5607;48.302;14.294;2024-01-30T05:55:13;59411.84;;;-143.53;100.00
11108;BME280;5607;48.302;14.294;2024-01-30T05:58:00;59411.84;;;-143.53;100.00
11108;BME280;5607;48.302;14.294;2024-01-30T06:00:47;59411.84;;;-143.53;100.00
11108;BME280;5607;48.302;14.294;2024-01-30T06:03:33;59411.84;;;-143.53;100.00
11108;BME280;5607;48.302;14.294;2024-01-30T06:06:20;59411.84;;;-143.53;100.00
11108;BME280;5607;48.302;14.294;2024-01-30T06:09:07;59411.84;;;-143.53;100.00
11108;BME280;5607;48.302;14.294;2024-01-30T06:11:56;59411.84;;;-143.53;100.00
11108;BME280;5607;48.302;14.294;2024-01-30T06:14:43;59411.84;;;-143.53;100.00
11108;BME280;5607;48.302;14.294;2024-01-30T06:17:29;59411.84;;;-143.53;100.00
11108;BME280;5607;48.302;14.294;2024-01-30T06:20:16;59411.84;;;-143.53;100.00
11108;BME280;5607;48.302;14.294;2024-01-30T06:23:03;59411.84;;;-143.53;100.00
11108;BME280;5607;48.302;14.294;2024-01-30T06:25:51;59411.84;;;-143.53;100.00
11108;BME280;5607;48.302;14.294;2024-01-30T06:28:37;59411.84;;;-143.53;100.00
11108;BME280;5607;48.302;14.294;2024-01-30T06:31:24;59411.84;;;-143.53;100.00
11108;BME280;5607;48.302;14.294;2024-01-30T06:34:10;59411.84;;;-143.53;100.00
11108;BME280;5607;48.302;14.294;2024-01-30T06:36:58;59411.84;;;-143.53;100.00
11108;BME280;5607;48.302;14.294;2024-01-30T06:39:44;59411.84;;;-143.53;100.00
11108;BME280;5607;48.302;14.294;2024-01-30T06:42:31;59411.84;;;-143.53;100.00
11108;BME280;5607;48.302;14.294;2024-01-30T06:45:17;59411.84;;;-143.53;100.00
11108;BME280;5607;48.302;14.294;2024-01-30T06:48:04;59411.84;;;-143.53;100.00
11108;BME280;5607;48.302;14.294;2024-01-30T06:50:54;59411.84;;;-143.53;100.00
11108;BME280;5607;48.302;14.294;2024-01-30T06:53:41;59411.84;;;-143.53;100.00
11108;BME280;5607;48.302;14.294;2024-01-30T06:56:28;59411.84;;;-143.53;100.00
11108;BME280;5607;48.302;14.294;2024-01-30T06:59:14;59411.84;;;-143.53;100.00
11108;BME280;5607;48.302;14.294;2024-01-30T07:02:01;59411.84;;;-143.53;100.00
11108;BME280;5607;48.302;14.294;2024-01-30T07:04:48;59411.84;;;-143.53;100.00
11108;BME280;5607;48.302;14.294;2024-01-30T07:07:35;59411.84;;;-143.53;100.00
11108;BME280;5607;48.302;14.294;2024-01-30T07:10:22;59411.84;;;-143.53;100.00
11108;BME280;5607;48.302;14.294;2024-01-30T07:13:09;59411.84;;;-143.53;100.00
11108;BME280;5607;48.302;14.294;2024-01-30T07:15:56;59411.84;;;-143.53;100.00
11108;BME280;5607;48.302;14.294;2024-01-30T07:18:43;59411.84;;;-143.53;100.00
11108;BME280;5607;48.302;14.294;2024-01-30T07:21:30;59411.84;;;-143.53;100.00
11108;BME280;5607;48.302;14.294;2024-01-30T07:24:17;59411.84;;;-143.53;100.00
11108;BME280;5607;48.302;14.294;2024-01-30T07:27:03;59411.84;;;-143.53;100.00
11108;BME280;5607;48.302;14.294;2024-01-30T07:29:50;59411.84;;;-143.53;100.00
11108;BME280;5607;48.302;14.294;2024-01-30T07:32:38;59411.84;;;-143.53;100.00
11108;BME280;5607;48.302;14.294;2024-01-30T07:35:24;59411.84;;;-143.53;100.00
11108;BME280;5607;48.302;14.294;2024-01-30T07:38:11;59411.84;;;-143.53;100.00
11108;BME280;5607;48.302;14.294;2024-01-30T07:40:58;59411.84;;;-143.53;100.00
11108;BME280;5607;48.302;14.294;2024-01-30T07:43:44;59411.84;;;-143.53;100.00
11108;BME280;5607;48.302;14.294;2024-01-30T07:46:31;59411.84;;;-143.53;100.00
11108;BME280;5607;48.302;14.294;2024-01-30T07:49:18;59411.84;;;-143.53;100.00
11108;BME280;5607;48.302;14.294;2024-01-30T07:52:05;59411.84;;;-143.53;100.00
11108;BME280;5607;48.302;14.294;2024-01-30T07:54:51;59411.84;;;-143.53;100.00
11108;BME280;5607;48.302;14.294;2024-01-30T07:57:39;59411.84;;;-143.53;100.00
11108;BME280;5607;48.302;14.294;2024-01-30T08:00:26;59411.84;;;-143.53;100.00
11108;BME280;5607;48.302;14.294;2024-01-30T08:03:13;59411.84;;;-143.53;100.00
11108;BME280;5607;48.302;14.294;2024-01-30T08:06:03;59411.84;;;-143.53;100.00
11108;BME280;5607;48.302;14.294;2024-01-30T08:08:49;59411.84;;;-143.53;100.00
11108;BME280;5607;48.302;14.294;2024-01-30T08:11:37;59411.84;;;-143.53;100.00
11108;BME280;5607;48.302;14.294;2024-01-30T08:14:24;59411.84;;;-143.53;100.00
11108;BME280;5607;48.302;14.294;2024-01-30T08:17:10;59411.84;;;-143.53;100.00
11108;BME280;5607;48.302;14.294;2024-01-30T08:19:58;59411.84;;;-143.53;100.00
11108;BME280;5607;48.302;14.294;2024-01-30T08:22:46;59411.84;;;-143.53;100.00
11108;BME280;5607;48.302;14.294;2024-01-30T08:25:32;59411.84;;;-143.53;100.00
11108;BME280;5607;48.302;14.294;2024-01-30T08:28:19;59411.84;;;-143.53;100.00
11108;BME280;5607;48.302;14.294;2024-01-30T08:31:05;59411.84;;;-143.53;100.00
11108;BME280;5607;48.302;14.294;2024-01-30T08:33:52;59411.84;;;-143.53;100.00
11108;BME280;5607;48.302;14.294;2024-01-30T08:36:40;59411.84;;;-143.53;100.00
11108;BME280;5607;48.302;14.294;2024-01-30T08:39:26;59411.84;;;-143.53;100.00
11108;BME280;5607;48.302;14.294;2024-01-30T08:42:13;59411.84;;;-143.53;100.00
11108;BME280;5607;48.302;14.294;2024-01-30T08:45:01;59411.84;;;-143.53;100.00
11108;BME280;5607;48.302;14.294;2024-01-30T08:47:48;59411.84;;;-143.53;100.00
11108;BME280;5607;48.302;14.294;2024-01-30T08:50:34;59411.84;;;-143.53;100.00
11108;BME280;5607;48.302;14.294;2024-01-30T08:53:21;59411.84;;;-143.53;100.00
11108;BME280;5607;48.302;14.294;2024-01-30T08:56:07;59411.84;;;-143.53;100.00
11108;BME280;5607;48.302;14.294;2024-01-30T08:58:54;59411.84;;;-143.53;100.00
11108;BME280;5607;48.302;14.294;2024-01-30T09:01:40;59411.84;;;-143.53;100.00
11108;BME280;5607;48.302;14.294;2024-01-30T09:04:27;59411.84;;;-143.53;100.00
11108;BME280;5607;48.302;14.294;2024-01-30T09:07:14;59411.84;;;-143.53;100.00
11108;BME280;5607;48.302;14.294;2024-01-30T09:10:00;59411.84;;;-143.53;100.00
11108;BME280;5607;48.302;14.294;2024-01-30T09:12:47;59411.84;;;-143.53;100.00
11108;BME280;5607;48.302;14.294;2024-01-30T09:15:34;59411.84;;;-143.53;100.00
11108;BME280;5607;48.302;14.294;2024-01-30T09:18:21;59411.84;;;-143.53;100.00
11108;BME280;5607;48.302;14.294;2024-01-30T09:21:09;59411.84;;;-143.53;100.00
11108;BME280;5607;48.302;14.294;2024-01-30T09:24:01;59411.84;;;-143.53;100.00
11108;BME280;5607;48.302;14.294;2024-01-30T09:26:49;59411.84;;;-143.53;100.00
11108;BME280;5607;48.302;14.294;2024-01-30T09:29:35;59411.84;;;-143.53;100.00
11108;BME280;5607;48.302;14.294;2024-01-30T09:32:22;59411.84;;;-143.53;100.00
11108;BME280;5607;48.302;14.294;2024-01-30T09:35:09;59411.84;;;-143.53;100.00
11108;BME280;5607;48.302;14.294;2024-01-30T09:37:56;59411.84;;;-143.53;100.00
11108;BME280;5607;48.302;14.294;2024-01-30T09:40:46;59411.84;;;-143.53;100.00
11108;BME280;5607;48.302;14.294;2024-01-30T09:43:37;59411.84;;;-143.53;100.00
11108;BME280;5607;48.302;14.294;2024-01-30T09:46:26;59411.84;;;-143.53;100.00
11108;BME280;5607;48.302;14.294;2024-01-30T09:49:17;59411.84;;;-143.53;100.00
11108;BME280;5607;48.302;14.294;2024-01-30T09:52:06;59411.84;;;-143.53;100.00
11108;BME280;5607;48.302;14.294;2024-01-30T09:54:54;59411.84;;;-143.53;100.00
11108;BME280;5607;48.302;14.294;2024-01-30T09:57:42;75467.66;;;-143.52;58.83
11108;BME280;5607;48.302;14.294;2024-01-30T10:00:28;77320.53;;;-143.52;45.20
11108;BME280;5607;48.302;14.294;2024-01-30T10:03:15;77322.53;;;-143.52;44.87
11108;BME280;5607;48.302;14.294;2024-01-30T10:06:02;77318.53;;;-143.52;45.06
11108;BME280;5607;48.302;14.294;2024-01-30T10:09:09;77346.47;;;-143.52;45.46
11108;BME280;5607;48.302;14.294;2024-01-30T10:11:56;77318.53;;;-143.52;45.10
11108;BME280;5607;48.302;14.294;2024-01-30T10:14:44;77302.53;;;-143.52;44.32
11108;BME280;5607;48.302;14.294;2024-01-30T10:17:30;77324.50;;;-143.52;45.15
11108;BME280;5607;48.302;14.294;2024-01-30T10:20:17;77322.53;;;-143.52;44.90
11108;BME280;5607;48.302;14.294;2024-01-30T10:23:05;77300.56;;;-143.52;44.83
11108;BME280;5607;48.302;14.294;2024-01-30T10:25:52;77302.53;;;-143.52;45.17
11108;BME280;5607;48.302;14.294;2024-01-30T10:28:38;77278.59;;;-143.52;44.87
11108;BME280;5607;48.302;14.294;2024-01-30T10:31:25;77278.59;;;-143.52;45.03
11108;BME280;5607;48.302;14.294;2024-01-30T10:34:12;77294.56;;;-143.52;44.86
11108;BME280;5607;48.302;14.294;2024-01-30T10:37:09;77342.50;;;-143.52;45.44
11108;BME280;5607;48.302;14.294;2024-01-30T10:40:03;77304.53;;;-143.52;45.41
11108;BME280;5607;48.302;14.294;2024-01-30T10:42:53;77298.56;;;-143.52;45.27
11108;BME280;5607;48.302;14.294;2024-01-30T10:45:44;77206.69;;;-143.52;44.15
11108;BME280;5607;48.302;14.294;2024-01-30T10:48:36;77194.69;;;-143.52;43.83
11108;BME280;5607;48.302;14.294;2024-01-30T10:51:26;77256.63;;;-143.52;44.37
11108;BME280;5607;48.302;14.294;2024-01-30T10:54:12;77228.66;;;-143.52;44.17
11108;BME280;5607;48.302;14.294;2024-01-30T10:57:00;77254.63;;;-143.52;44.33
11108;BME280;5607;48.302;14.294;2024-01-30T10:59:53;77206.69;;;-143.52;43.94
11108;BME280;5607;48.302;14.294;2024-01-30T11:02:43;77250.63;;;-143.52;44.56
11108;BME280;5607;48.302;14.294;2024-01-30T11:05:30;77224.66;;;-143.52;44.09
11108;BME280;5607;48.302;14.294;2024-01-30T11:08:26;77218.66;;;-143.52;44.28
11108;BME280;5607;48.302;14.294;2024-01-30T11:11:16;77198.69;;;-143.52;43.91
11108;BME280;5607;48.302;14.294;2024-01-30T11:14:03;77196.69;;;-143.52;43.90
11108;BME280;5607;48.302;14.294;2024-01-30T11:16:49;77184.72;;;-143.52;43.76
11108;BME280;5607;48.302;14.294;2024-01-30T11:19:36;77178.72;;;-143.52;43.66
11108;BME280;5607;48.302;14.294;2024-01-30T11:22:22;77220.66;;;-143.52;44.46
11108;BME280;5607;48.302;14.294;2024-01-30T11:25:16;77194.69;;;-143.52;44.12
11108;BME280;5607;48.302;14.294;2024-01-30T11:28:03;77182.72;;;-143.52;43.75
11108;BME280;5607;48.302;14.294;2024-01-30T11:30:50;77202.69;;;-143.52;44.20
11108;BME280;5607;48.302;14.294;2024-01-30T11:33:38;77176.72;;;-143.52;43.72
11108;BME280;5607;48.302;14.294;2024-01-30T11:36:26;77156.75;;;-143.52;43.49
11108;BME280;5607;48.302;14.294;2024-01-30T11:39:17;77164.75;;;-143.52;43.46
11108;BME280;5607;48.302;14.294;2024-01-30T11:42:07;77168.75;;;-143.52;43.81
11108;BME280;5607;48.302;14.294;2024-01-30T11:44:55;77206.69;;;-143.52;43.92
11108;BME280;5607;48.302;14.294;2024-01-30T11:47:41;77144.78;;;-143.52;43.48
11108;BME280;5607;48.302;14.294;2024-01-30T11:50:37;77156.75;;;-143.52;43.69
11108;BME280;5607;48.302;14.294;2024-01-30T11:53:25;77152.75;;;-143.52;43.62
11108;BME280;5607;48.302;14.294;2024-01-30T11:56:12;77134.78;;;-143.52;43.26
11108;BME280;5607;48.302;14.294;2024-01-30T11:58:59;77120.81;;;-143.52;43.16
11108;BME280;5607;48.302;14.294;2024-01-30T12:01:47;77152.75;;;-143.52;43.47
11108;BME280;5607;48.302;14.294;2024-01-30T12:04:33;77182.72;;;-143.52;44.03
11108;BME280;5607;48.302;14.294;2024-01-30T12:07:20;77192.72;;;-143.52;44.24
11108;BME280;5607;48.302;14.294;2024-01-30T12:10:08;77190.72;;;-143.52;44.17
11108;BME280;5607;48.302;14.294;2024-01-30T12:12:56;77146.78;;;-143.52;43.80
11108;BME280;5607;48.302;14.294;2024-01-30T12:15:43;77132.78;;;-143.52;43.76
11108;BME280;5607;48.302;14.294;2024-01-30T12:18:30;77126.81;;;-143.52;43.51
11108;BME280;5607;48.302;14.294;2024-01-30T12:21:17;77100.84;;;-143.52;43.40
11108;BME280;5607;48.302;14.294;2024-01-30T12:24:04;77126.81;;;-143.52;43.31
11108;BME280;5607;48.302;14.294;2024-01-30T12:26:57;77138.78;;;-143.52;44.02
11108;BME280;5607;48.302;14.294;2024-01-30T12:29:44;77132.78;;;-143.52;44.00
11108;BME280;5607;48.302;14.294;2024-01-30T12:32:31;77088.84;;;-143.52;43.51
11108;BME280;5607;48.302;14.294;2024-01-30T12:35:19;77086.88;;;-143.52;43.15
11108;BME280;5607;48.302;14.294;2024-01-30T12:38:06;77118.81;;;-143.52;43.38
11108;BME280;5607;48.302;14.294;2024-01-30T12:40:56;77100.84;;;-143.52;43.36
11108;BME280;5607;48.302;14.294;2024-01-30T12:43:43;77098.84;;;-143.52;43.60
11108;BME280;5607;48.302;14.294;2024-01-30T12:46:30;77118.81;;;-143.52;43.91
11108;BME280;5607;48.302;14.294;2024-01-30T12:49:18;77088.84;;;-143.52;43.23
11108;BME280;5607;48.302;14.294;2024-01-30T12:52:04;77108.84;;;-143.52;43.78
11108;BME280;5607;48.302;14.294;2024-01-30T12:54:51;77074.88;;;-143.52;43.44
11108;BME280;5607;48.302;14.294;2024-01-30T12:57:38;77080.88;;;-143.52;43.51
11108;BME280;5607;48.302;14.294;2024-01-30T13:00:25;77078.88;;;-143.52;43.23
11108;BME280;5607;48.302;14.294;2024-01-30T13:03:13;77074.88;;;-143.52;43.12
11108;BME280;5607;48.302;14.294;2024-01-30T13:05:59;77048.91;;;-143.52;42.81
11108;BME280;5607;48.302;14.294;2024-01-30T13:08:46;77070.88;;;-143.52;42.76
11108;BME280;5607;48.302;14.294;2024-01-30T13:11:32;77080.88;;;-143.52;43.55
11108;BME280;5607;48.302;14.294;2024-01-30T13:14:19;77094.84;;;-143.52;43.51
11108;BME280;5607;48.302;14.294;2024-01-30T13:17:06;77102.84;;;-143.52;43.84
11108;BME280;5607;48.302;14.294;2024-01-30T13:19:52;77078.88;;;-143.52;43.62
11108;BME280;5607;48.302;14.294;2024-01-30T13:22:40;77056.91;;;-143.52;43.09
11108;BME280;5607;48.302;14.294;2024-01-30T13:25:26;77098.84;;;-143.52;43.80
11108;BME280;5607;48.302;14.294;2024-01-30T13:28:13;77118.81;;;-143.52;43.86
11108;BME280;5607;48.302;14.294;2024-01-30T13:31:00;77080.88;;;-143.52;43.40
11108;BME280;5607;48.302;14.294;2024-01-30T13:33:46;77082.88;;;-143.52;43.28
11108;BME280;5607;48.302;14.294;2024-01-30T13:36:33;77142.78;;;-143.52;43.81
11108;BME280;5607;48.302;14.294;2024-01-30T13:39:20;77182.72;;;-143.52;45.02
11108;BME280;5607;48.302;14.294;2024-01-30T13:42:06;77116.81;;;-143.52;44.29
11108;BME280;5607;48.302;14.294;2024-01-30T13:44:53;77110.81;;;-143.52;43.87
11108;BME280;5607;48.302;14.294;2024-01-30T13:47:40;77122.81;;;-143.52;44.05
11108;BME280;5607;48.302;14.294;2024-01-30T13:50:27;77112.81;;;-143.52;43.61
11108;BME280;5607;48.302;14.294;2024-01-30T13:53:13;77150.78;;;-143.52;44.74
11108;BME280;5607;48.302;14.294;2024-01-30T13:56:00;77126.81;;;-143.52;44.46
11108;BME280;5607;48.302;14.294;2024-01-30T13:58:49;77128.81;;;-143.52;44.24
11108;BME280;5607;48.302;14.294;2024-01-30T14:01:36;77120.81;;;-143.52;44.05
11108;BME280;5607;48.302;14.294;2024-01-30T14:04:23;77142.78;;;-143.52;44.29
11108;BME280;5607;48.302;14.294;2024-01-30T14:07:09;77134.78;;;-143.52;44.28
11108;BME280;5607;48.302;14.294;2024-01-30T14:09:56;77186.72;;;-143.52;44.99
11108;BME280;5607;48.302;14.294;2024-01-30T14:12:43;77144.78;;;-143.52;44.44
11108;BME280;5607;48.302;14.294;2024-01-30T14:15:34;77144.78;;;-143.52;44.72